Time;durP1;ratioP1;P1;durP2;ratioP2;P2;SDS_P1;SDS_P2;PMS_P1;PMS_P2;Temp;Humidity;BMP_temperature;BMP_pressure;BME280_temperature;BME280_humidity;BME280_pressure;Samples;Min_cycle;Max_cycle;Signal;HPM_P1;HPM_P2
2023/01/06 00:02:06;;;;;;;15.98;6.47;;;;;;;;;;5054252;28;20195;-42
2023/01/06 00:04:31;;;;;;;17.00;7.63;;;;;;;;;;5054606;28;20025;-42
2023/01/06 00:06:57;;;;;;;15.88;6.47;;;;;;;;;;5054146;28;20087;-42
2023/01/06 00:09:22;;;;;;;11.30;5.78;;;;;;;;;;5054590;28;20013;-42
2023/01/06 00:11:48;;;;;;;15.50;5.75;;;;;;;;;;5054203;28;20091;-42
2023/01/06 00:14:13;;;;;;;14.68;6.03;;;;;;;;;;5054076;28;20048;-42
2023/01/06 00:16:39;;;;;;;15.55;6.82;;;;;;;;;;5054120;28;20025;-42
2023/01/06 00:19:04;;;;;;;19.38;7.47;;;;;;;;;;5054354;28;20017;-42
2023/01/06 00:21:29;;;;;;;16.20;8.35;;;;;;;;;;5054025;28;20036;-41
2023/01/06 00:23:55;;;;;;;17.13;8.15;;;;;;;;;;5054006;28;20029;-42
2023/01/06 00:26:21;;;;;;;12.27;6.40;;;;;;;;;;5053823;28;20048;-42
2023/01/06 00:28:47;;;;;;;12.48;6.32;;;;;;;;;;5053948;28;20494;-42
2023/01/06 00:31:13;;;;;;;17.65;9.10;;;;;;;;;;5053900;28;20029;-42
2023/01/06 00:33:39;;;;;;;16.33;7.18;;;;;;;;;;5052517;28;20017;-42
2023/01/06 00:36:08;;;;;;;17.65;6.70;;;;;;;;;;5052388;28;20057;-42
2023/01/06 00:38:35;;;;;;;17.48;7.75;;;;;;;;;;5053782;28;20405;-42
2023/01/06 00:42:02;;;;;;;13.32;5.72;;;;;;;;;;5053668;28;20060;-42
2023/01/06 00:43:49;;;;;;;16.75;6.57;;;;;;;;;;5052292;28;20456;-41
2023/01/06 00:46:15;;;;;;;23.02;7.10;;;;;;;;;;5052263;28;20060;-42
2023/01/06 00:48:40;;;;;;;13.07;6.57;;;;;;;;;;5053286;28;20108;-41
2023/01/06 00:51:06;;;;;;;18.20;6.10;;;;;;;;;;5052251;28;20062;-42
2023/01/06 00:53:32;;;;;;;12.20;5.35;;;;;;;;;;5052181;28;20052;-42
2023/01/06 00:56:01;;;;;;;16.05;7.22;;;;;;;;;;5052046;28;20463;-42
2023/01/06 00:58:30;;;;;;;13.40;7.05;;;;;;;;;;5053675;28;20109;-41
2023/01/06 01:00:55;;;;;;;15.40;5.90;;;;;;;;;;5053095;28;20368;-42
2023/01/06 01:03:21;;;;;;;15.25;5.55;;;;;;;;;;5052019;28;20020;-42
2023/01/06 01:05:46;;;;;;;14.50;5.93;;;;;;;;;;5053115;28;20485;-41
2023/01/06 01:08:12;;;;;;;12.18;6.22;;;;;;;;;;5053088;28;20029;-42
2023/01/06 01:10:37;;;;;;;14.40;6.07;;;;;;;;;;5052035;28;20541;-42
2023/01/06 01:13:02;;;;;;;10.85;5.90;;;;;;;;;;5051720;28;20506;-42
2023/01/06 01:15:28;;;;;;;13.18;5.03;;;;;;;;;;5053015;28;20459;-42
2023/01/06 01:17:53;;;;;;;14.55;5.88;;;;;;;;;;5051749;28;20028;-41
2023/01/06 01:20:19;;;;;;;11.38;5.43;;;;;;;;;;5052929;28;20032;-42
2023/01/06 01:22:44;;;;;;;10.13;5.95;;;;;;;;;;5051584;28;20025;-41
2023/01/06 01:25:09;;;;;;;13.02;5.50;;;;;;;;;;5051438;28;20036;-41
2023/01/06 01:27:35;;;;;;;14.50;5.75;;;;;;;;;;5052812;28;20040;-42
2023/01/06 01:30:00;;;;;;;15.73;6.00;;;;;;;;;;5052697;28;20078;-42
2023/01/06 01:32:26;;;;;;;14.65;6.93;;;;;;;;;;5051505;28;20121;-42
2023/01/06 01:34:51;;;;;;;14.90;6.00;;;;;;;;;;5052978;28;20021;-42
2023/01/06 01:37:17;;;;;;;14.48;7.05;;;;;;;;;;5052467;28;20538;-42
2023/01/06 01:39:42;;;;;;;10.57;6.60;;;;;;;;;;5052622;28;20019;-42
2023/01/06 01:42:14;;;;;;;13.20;6.47;;;;;;;;;;5051225;28;20127;-42
2023/01/06 01:44:48;;;;;;;8.98;5.72;;;;;;;;;;5052394;28;20028;-42
2023/01/06 01:47:15;;;;;;;12.70;5.50;;;;;;;;;;5051118;28;20067;-42
2023/01/06 01:49:42;;;;;;;14.27;5.60;;;;;;;;;;5052636;28;20367;-42
2023/01/06 01:52:08;;;;;;;9.65;5.15;;;;;;;;;;5050953;28;20049;-42
2023/01/06 01:54:34;;;;;;;11.85;4.93;;;;;;;;;;5052669;28;20021;-42
2023/01/06 01:57:05;;;;;;;13.18;6.18;;;;;;;;;;5050733;28;20032;-42
2023/01/06 01:59:31;;;;;;;10.88;5.47;;;;;;;;;;5051023;28;20028;-41
2023/01/06 02:01:57;;;;;;;7.85;5.22;;;;;;;;;;5050065;28;20491;-42
2023/01/06 02:04:23;;;;;;;7.88;4.18;;;;;;;;;;5050730;28;20036;-42
2023/01/06 02:06:49;;;;;;;10.43;5.63;;;;;;;;;;5050638;28;20040;-42
2023/01/06 02:09:17;;;;;;;10.23;5.30;;;;;;;;;;5050667;28;20462;-42
2023/01/06 02:11:43;;;;;;;9.73;5.72;;;;;;;;;;5052193;28;20352;-41
2023/01/06 02:14:14;;;;;;;9.00;4.88;;;;;;;;;;5052103;28;20068;-42
2023/01/06 02:17:06;;;;;;;12.82;4.32;;;;;;;;;;5050636;28;20053;-42
2023/01/06 02:19:50;;;;;;;10.07;4.68;;;;;;;;;;5035124;28;20119;-41
2023/01/06 02:22:25;;;;;;;14.45;5.65;;;;;;;;;;5050753;28;20127;-42
2023/01/06 02:24:50;;;;;;;6.20;4.20;;;;;;;;;;5050482;28;20068;-42
2023/01/06 02:27:28;;;;;;;9.90;5.85;;;;;;;;;;5050304;28;20049;-42
2023/01/06 02:29:54;;;;;;;15.77;4.95;;;;;;;;;;5050493;28;20501;-42
2023/01/06 02:32:20;;;;;;;12.75;5.28;;;;;;;;;;5050273;28;20025;-42
2023/01/06 02:35:03;;;;;;;8.88;4.30;;;;;;;;;;5051948;28;20025;-43
2023/01/06 02:37:29;;;;;;;11.35;4.13;;;;;;;;;;5051871;28;20383;-42
2023/01/06 02:39:57;;;;;;;8.60;4.82;;;;;;;;;;5050348;28;20013;-42
2023/01/06 02:42:26;;;;;;;12.93;6.10;;;;;;;;;;5051850;28;20028;-42
2023/01/06 02:45:10;;;;;;;9.25;5.50;;;;;;;;;;5051456;28;20028;-41
2023/01/06 02:47:45;;;;;;;8.65;5.60;;;;;;;;;;5050086;28;20396;-42
2023/01/06 02:50:20;;;;;;;4.82;3.55;;;;;;;;;;5051420;28;20055;-42
2023/01/06 02:52:57;;;;;;;9.65;4.90;;;;;;;;;;5050088;28;20846;-42
2023/01/06 02:55:27;;;;;;;9.60;5.07;;;;;;;;;;5050018;28;20033;-41
2023/01/06 02:58:06;;;;;;;10.80;3.90;;;;;;;;;;5050068;28;20036;-44
2023/01/06 03:00:40;;;;;;;8.43;4.45;;;;;;;;;;5050080;28;20021;-42
2023/01/06 03:03:13;;;;;;;8.55;3.92;;;;;;;;;;5050992;28;20045;-42
2023/01/06 03:05:40;;;;;;;10.15;4.25;;;;;;;;;;5049814;28;20033;-41
2023/01/06 03:08:12;;;;;;;10.38;4.68;;;;;;;;;;5051133;28;20483;-42
2023/01/06 03:10:40;;;;;;;8.77;4.82;;;;;;;;;;5050005;28;20057;-42
2023/01/06 03:13:26;;;;;;;10.20;6.00;;;;;;;;;;5051281;28;20067;-42
2023/01/06 03:15:55;;;;;;;9.25;3.97;;;;;;;;;;5053937;28;20033;-41
2023/01/06 03:18:20;;;;;;;13.90;6.28;;;;;;;;;;5053893;28;20039;-46
2023/01/06 03:20:48;;;;;;;7.40;3.92;;;;;;;;;;5055285;28;20037;-42
2023/01/06 03:23:13;;;;;;;10.43;4.43;;;;;;;;;;5053703;28;20107;-42
2023/01/06 03:25:39;;;;;;;8.05;4.85;;;;;;;;;;5053773;28;20124;-42
2023/01/06 03:28:06;;;;;;;7.10;5.07;;;;;;;;;;5053728;28;20399;-42
2023/01/06 03:30:55;;;;;;;10.32;4.63;;;;;;;;;;5053713;28;20033;-42
2023/01/06 03:33:24;;;;;;;5.72;3.75;;;;;;;;;;5044519;28;20100;-42
2023/01/06 03:35:49;;;;;;;9.77;3.70;;;;;;;;;;5053677;28;20029;-42
2023/01/06 03:38:23;;;;;;;7.25;4.30;;;;;;;;;;5053464;28;20036;-41
2023/01/06 03:40:48;;;;;;;;;;;;;;;;;;5055258;28;20029;-42
2023/01/06 03:43:15;;;;;;;6.22;3.30;;;;;;;;;;5053465;28;19912;-42
2023/01/06 03:45:49;;;;;;;;;;;;;;;;;;5055280;28;20064;-42
2023/01/06 03:48:34;;;;;;;4.47;3.20;;;;;;;;;;5053372;28;19919;-42
2023/01/06 03:51:23;;;;;;;7.07;3.65;;;;;;;;;;5054448;28;20506;-42
2023/01/06 03:54:08;;;;;;;15.73;3.83;;;;;;;;;;5053215;28;20429;-42
2023/01/06 03:56:40;;;;;;;7.82;3.85;;;;;;;;;;5053298;28;20063;-42
2023/01/06 03:59:09;;;;;;;7.57;4.80;;;;;;;;;;5054440;28;20053;-41
2023/01/06 04:01:36;;;;;;;11.07;3.90;;;;;;;;;;5053062;28;20056;-42
2023/01/06 04:04:02;;;;;;;6.10;3.45;;;;;;;;;;5054344;28;20361;-42
2023/01/06 04:06:28;;;;;;;7.97;3.42;;;;;;;;;;5052944;28;20036;-41
2023/01/06 04:08:53;;;;;;;7.68;3.03;;;;;;;;;;5053126;28;20029;-42
2023/01/06 04:14:04;;;;;;;6.75;3.20;;;;;;;;;;5052874;28;20078;-42
2023/01/06 04:16:29;;;;;;;5.30;3.45;;;;;;;;;;5052960;28;20398;-42
2023/01/06 04:18:54;;;;;;;5.90;3.00;;;;;;;;;;5054520;28;20485;-42
2023/01/06 04:21:20;;;;;;;4.55;2.70;;;;;;;;;;5054269;28;20017;-42
2023/01/06 04:23:46;;;;;;;6.85;2.53;;;;;;;;;;5052249;28;20036;-42
2023/01/06 04:26:12;;;;;;;5.25;3.22;;;;;;;;;;5054066;28;20093;-42
2023/01/06 04:28:44;;;;;;;7.82;3.60;;;;;;;;;;5052716;28;20480;-42
2023/01/06 04:31:10;;;;;;;6.85;4.22;;;;;;;;;;5052588;28;20072;-42
2023/01/06 04:33:37;;;;;;;6.20;3.70;;;;;;;;;;5052563;28;20374;-42
2023/01/06 04:36:04;;;;;;;6.35;3.45;;;;;;;;;;5052397;28;20025;-42
2023/01/06 04:38:32;;;;;;;6.60;3.65;;;;;;;;;;5036370;28;20418;-42
2023/01/06 04:40:58;;;;;;;4.43;2.83;;;;;;;;;;5053920;28;20025;-42
2023/01/06 04:43:23;;;;;;;4.97;3.42;;;;;;;;;;5054027;28;20355;-42
2023/01/06 04:45:48;;;;;;;4.72;2.35;;;;;;;;;;5053765;28;20478;-42
2023/01/06 04:48:14;;;;;;;5.22;3.08;;;;;;;;;;5053819;28;20045;-42
2023/01/06 04:50:39;;;;;;;6.15;3.45;;;;;;;;;;5053613;28;20453;-41
2023/01/06 04:53:05;;;;;;;3.78;2.65;;;;;;;;;;5053733;28;20029;-41
2023/01/06 04:55:31;;;;;;;9.45;3.85;;;;;;;;;;5053346;28;20113;-42
2023/01/06 04:57:56;;;;;;;4.93;2.45;;;;;;;;;;5053463;28;20100;-41
2023/01/06 05:00:22;;;;;;;7.20;3.70;;;;;;;;;;5053298;28;20028;-42
2023/01/06 05:02:47;;;;;;;5.50;3.72;;;;;;;;;;5053160;28;20041;-42
2023/01/06 05:05:13;;;;;;;6.13;3.33;;;;;;;;;;5053123;28;20035;-41
2023/01/06 05:07:39;;;;;;;6.93;3.25;;;;;;;;;;5053245;28;20498;-42
2023/01/06 05:10:06;;;;;;;7.70;3.40;;;;;;;;;;5053028;28;20124;-42
2023/01/06 05:12:31;;;;;;;5.70;3.10;;;;;;;;;;5052924;28;20021;-42
2023/01/06 05:14:57;;;;;;;6.97;2.58;;;;;;;;;;5053368;28;20079;-42
2023/01/06 05:17:23;;;;;;;3.83;2.05;;;;;;;;;;5052872;28;20368;-42
2023/01/06 05:19:48;;;;;;;6.40;3.08;;;;;;;;;;5053056;28;20025;-42
2023/01/06 05:22:14;;;;;;;6.53;3.70;;;;;;;;;;5052878;28;20086;-42
2023/01/06 05:24:39;;;;;;;7.28;3.22;;;;;;;;;;5052904;28;20036;-41
2023/01/06 05:27:04;;;;;;;5.28;3.65;;;;;;;;;;5052689;28;20029;-41
2023/01/06 05:29:30;;;;;;;6.20;3.15;;;;;;;;;;5052780;28;20090;-42
2023/01/06 05:31:55;;;;;;;7.57;3.83;;;;;;;;;;5052701;28;20028;-42
2023/01/06 05:34:21;;;;;;;7.05;3.25;;;;;;;;;;5052939;28;20115;-41
2023/01/06 05:36:46;;;;;;;13.43;4.25;;;;;;;;;;5051644;28;20031;-42
2023/01/06 05:39:12;;;;;;;8.02;3.20;;;;;;;;;;5052793;28;20025;-42
2023/01/06 05:41:37;;;;;;;7.05;4.00;;;;;;;;;;5052864;28;20103;-42
2023/01/06 05:44:02;;;;;;;7.93;3.03;;;;;;;;;;5052471;28;20033;-42
2023/01/06 05:46:28;;;;;;;4.50;2.72;;;;;;;;;;5052274;28;20110;-42
2023/01/06 05:48:53;;;;;;;4.40;3.30;;;;;;;;;;5052509;28;20029;-41
2023/01/06 05:51:19;;;;;;;3.72;3.13;;;;;;;;;;5052360;28;20125;-41
2023/01/06 05:53:45;;;;;;;6.28;2.72;;;;;;;;;;5052366;28;20112;-42
2023/01/06 05:56:12;;;;;;;5.07;3.05;;;;;;;;;;5052217;28;20021;-41
2023/01/06 05:58:43;;;;;;;7.28;3.22;;;;;;;;;;5052255;28;20451;-42
2023/01/06 06:01:17;;;;;;;7.60;3.22;;;;;;;;;;5051966;28;20040;-42
2023/01/06 06:03:43;;;;;;;6.05;3.40;;;;;;;;;;5052284;28;20029;-42
2023/01/06 06:06:08;;;;;;;4.45;2.65;;;;;;;;;;5051842;28;20044;-41
2023/01/06 06:08:34;;;;;;;5.35;2.92;;;;;;;;;;5052182;28;20039;-42
2023/01/06 06:11:03;;;;;;;6.80;2.63;;;;;;;;;;5052385;28;20029;-42
2023/01/06 06:13:29;;;;;;;5.88;3.80;;;;;;;;;;5052269;28;20357;-41
2023/01/06 06:16:08;;;;;;;4.05;2.45;;;;;;;;;;5052033;28;20104;-41
2023/01/06 06:18:35;;;;;;;10.05;3.78;;;;;;;;;;5051883;28;20041;-41
2023/01/06 06:21:01;;;;;;;4.88;3.35;;;;;;;;;;5052057;28;20017;-41
2023/01/06 06:23:27;;;;;;;4.18;3.13;;;;;;;;;;5051901;28;20553;-42
2023/01/06 06:25:53;;;;;;;5.30;2.75;;;;;;;;;;5051731;28;20468;-41
2023/01/06 06:28:19;;;;;;;6.68;3.13;;;;;;;;;;5051562;28;20112;-41
2023/01/06 06:30:44;;;;;;;9.00;2.30;;;;;;;;;;5051747;28;20048;-42
2023/01/06 06:33:10;;;;;;;4.53;2.63;;;;;;;;;;5051557;28;20033;-42
2023/01/06 06:35:36;;;;;;;3.70;2.67;;;;;;;;;;5051546;28;20118;-41
2023/01/06 06:38:01;;;;;;;5.75;2.63;;;;;;;;;;5051521;28;20037;-42
2023/01/06 06:40:26;;;;;;;4.95;2.67;;;;;;;;;;5051920;28;20017;-42
2023/01/06 06:42:52;;;;;;;3.70;2.97;;;;;;;;;;5051531;28;20064;-41
2023/01/06 06:45:18;;;;;;;2.75;2.03;;;;;;;;;;5051635;28;20116;-42
2023/01/06 06:47:44;;;;;;;5.70;3.28;;;;;;;;;;5051301;28;20044;-42
2023/01/06 06:50:10;;;;;;;9.55;3.10;;;;;;;;;;5051333;28;20074;-42
2023/01/06 06:52:36;;;;;;;4.65;3.08;;;;;;;;;;5051749;28;20134;-41
2023/01/06 06:55:01;;;;;;;9.13;3.92;;;;;;;;;;5051603;28;20104;-42
2023/01/06 06:57:27;;;;;;;11.48;5.15;;;;;;;;;;5050286;28;20479;-41
2023/01/06 06:59:53;;;;;;;8.60;3.33;;;;;;;;;;5050388;28;20017;-42
2023/01/06 07:02:18;;;;;;;7.65;3.13;;;;;;;;;;5051054;28;20487;-42
2023/01/06 07:04:44;;;;;;;4.70;2.50;;;;;;;;;;5051260;28;20040;-41
2023/01/06 07:07:10;;;;;;;6.40;3.55;;;;;;;;;;5051058;28;20040;-41
2023/01/06 07:09:35;;;;;;;8.00;4.30;;;;;;;;;;5051279;28;20027;-42
2023/01/06 07:12:01;;;;;;;8.05;4.53;;;;;;;;;;5051282;28;20375;-42
2023/01/06 07:14:27;;;;;;;8.07;3.00;;;;;;;;;;5051487;28;20021;-41
2023/01/06 07:16:52;;;;;;;5.78;3.03;;;;;;;;;;5049972;28;20025;-41
2023/01/06 07:19:18;;;;;;;3.72;3.05;;;;;;;;;;5051300;28;20079;-41
2023/01/06 07:21:43;;;;;;;6.95;3.42;;;;;;;;;;5051462;28;20035;-42
2023/01/06 07:24:09;;;;;;;5.22;2.92;;;;;;;;;;5051008;28;20025;-43
2023/01/06 07:26:34;;;;;;;5.93;3.15;;;;;;;;;;5050952;28;20458;-42
2023/01/06 07:28:59;;;;;;;7.05;3.05;;;;;;;;;;5051421;28;20029;-42
2023/01/06 07:31:25;;;;;;;3.97;2.50;;;;;;;;;;5050885;28;20147;-41
2023/01/06 07:33:51;;;;;;;7.47;3.72;;;;;;;;;;5051045;28;20016;-41
2023/01/06 07:36:16;;;;;;;5.10;2.88;;;;;;;;;;5050863;28;20071;-40
2023/01/06 07:38:42;;;;;;;5.95;3.38;;;;;;;;;;5050957;28;20051;-41
2023/01/06 07:41:07;;;;;;;5.03;3.08;;;;;;;;;;5051083;28;20655;-41
2023/01/06 07:43:33;;;;;;;8.35;3.47;;;;;;;;;;5050967;28;20013;-41
2023/01/06 07:45:58;;;;;;;10.48;3.85;;;;;;;;;;5050971;28;20043;-42
2023/01/06 07:48:27;;;;;;;5.40;3.10;;;;;;;;;;5050873;28;20009;-42
2023/01/06 07:50:52;;;;;;;5.55;3.08;;;;;;;;;;5049657;28;20364;-42
2023/01/06 07:53:18;;;;;;;5.05;2.33;;;;;;;;;;5049594;28;20024;-41
2023/01/06 07:55:50;;;;;;;11.02;2.83;;;;;;;;;;5050875;28;20032;-41
2023/01/06 07:58:17;;;;;;;13.27;3.63;;;;;;;;;;5051155;28;20130;-41
2023/01/06 08:00:42;;;;;;;8.30;2.67;;;;;;;;;;5054507;28;20036;-41
2023/01/06 08:03:10;;;;;;;4.20;2.35;;;;;;;;;;5054160;28;20056;-41
2023/01/06 08:05:36;;;;;;;5.60;2.95;;;;;;;;;;5054383;28;20142;-41
2023/01/06 08:08:02;;;;;;;8.60;4.43;;;;;;;;;;5054278;28;20475;-41
2023/01/06 08:10:27;;;;;;;5.25;3.35;;;;;;;;;;5054652;28;20025;-41
2023/01/06 08:12:54;;;;;;;4.85;2.75;;;;;;;;;;5054623;28;20391;-41
2023/01/06 08:15:19;;;;;;;7.15;2.58;;;;;;;;;;5054346;28;20053;-41
2023/01/06 08:17:45;;;;;;;5.13;2.97;;;;;;;;;;5054237;28;20510;-41
2023/01/06 08:20:10;;;;;;;5.65;2.72;;;;;;;;;;5054057;28;20025;-41
2023/01/06 08:22:36;;;;;;;5.30;2.28;;;;;;;;;;5054431;28;20031;-41
2023/01/06 08:25:01;;;;;;;6.60;3.08;;;;;;;;;;5054296;28;20020;-42
2023/01/06 08:27:27;;;;;;;6.97;4.00;;;;;;;;;;5053946;28;20072;-42
2023/01/06 08:29:54;;;;;;;5.65;2.67;;;;;;;;;;5054274;28;20025;-42
2023/01/06 08:32:20;;;;;;;6.30;3.05;;;;;;;;;;5053832;28;20112;-41
2023/01/06 08:34:45;;;;;;;14.40;4.35;;;;;;;;;;5053884;28;20365;-42
2023/01/06 08:37:11;;;;;;;7.25;4.20;;;;;;;;;;5053652;28;20087;-41
2023/01/06 08:39:36;;;;;;;8.85;3.67;;;;;;;;;;5054103;28;20620;-42
2023/01/06 08:42:02;;;;;;;4.68;3.00;;;;;;;;;;5054027;28;20029;-42
2023/01/06 08:44:27;;;;;;;8.00;3.75;;;;;;;;;;5053645;28;20395;-41
2023/01/06 08:46:53;;;;;;;8.85;3.40;;;;;;;;;;5053493;28;20127;-42
2023/01/06 08:49:18;;;;;;;9.18;2.88;;;;;;;;;;5053828;28;20051;-42
2023/01/06 08:51:43;;;;;;;5.78;2.65;;;;;;;;;;5053488;28;20045;-43
2023/01/06 08:54:09;;;;;;;9.00;2.80;;;;;;;;;;5053452;28;20021;-41
2023/01/06 08:56:35;;;;;;;5.60;3.17;;;;;;;;;;5053488;28;20035;-41
2023/01/06 08:59:01;;;;;;;6.80;3.78;;;;;;;;;;5053383;28;20438;-42
2023/01/06 09:01:30;;;;;;;4.63;2.88;;;;;;;;;;5053229;28;20044;-42
2023/01/06 09:03:56;;;;;;;8.02;3.80;;;;;;;;;;5053356;28;20036;-42
2023/01/06 09:06:22;;;;;;;8.38;3.65;;;;;;;;;;5053323;28;20395;-41
2023/01/06 09:08:47;;;;;;;5.00;2.80;;;;;;;;;;5053547;28;20539;-46
2023/01/06 09:11:13;;;;;;;9.27;3.67;;;;;;;;;;5052991;28;20422;-42
2023/01/06 09:13:39;;;;;;;4.65;2.55;;;;;;;;;;5051933;28;20021;-41
2023/01/06 09:16:05;;;;;;;7.97;3.55;;;;;;;;;;5053005;28;20539;-41
2023/01/06 09:18:31;;;;;;;6.97;3.10;;;;;;;;;;5053103;28;20039;-41
2023/01/06 09:20:56;;;;;;;4.60;2.78;;;;;;;;;;5053001;28;20483;-41
2023/01/06 09:23:22;;;;;;;3.50;2.30;;;;;;;;;;5052903;28;20013;-41
2023/01/06 09:25:48;;;;;;;3.00;2.30;;;;;;;;;;5052742;28;20072;-41
2023/01/06 09:28:13;;;;;;;3.60;2.33;;;;;;;;;;5053068;28;20082;-42
2023/01/06 09:30:39;;;;;;;4.47;2.42;;;;;;;;;;5052839;28;20112;-42
2023/01/06 09:33:05;;;;;;;3.03;2.10;;;;;;;;;;5052702;28;20020;-42
2023/01/06 09:35:30;;;;;;;5.22;2.08;;;;;;;;;;5052643;28;20375;-42
2023/01/06 09:37:56;;;;;;;4.88;2.85;;;;;;;;;;5051518;28;20027;-41
2023/01/06 09:40:24;;;;;;;5.55;2.97;;;;;;;;;;5052470;28;20392;-42
2023/01/06 09:43:01;;;;;;;5.53;2.83;;;;;;;;;;5052680;28;20489;-42
2023/01/06 09:45:33;;;;;;;5.88;3.88;;;;;;;;;;5052382;28;20475;-41
2023/01/06 09:48:01;;;;;;;5.70;2.72;;;;;;;;;;5052485;28;20115;-41
2023/01/06 09:50:33;;;;;;;4.72;2.55;;;;;;;;;;5052680;28;20098;-42
2023/01/06 09:53:02;;;;;;;3.92;2.20;;;;;;;;;;5052396;28;20090;-41
2023/01/06 09:55:33;;;;;;;3.25;2.47;;;;;;;;;;5052221;28;20423;-42
2023/01/06 09:58:01;;;;;;;6.03;2.20;;;;;;;;;;5052610;28;20086;-42
2023/01/06 10:00:45;;;;;;;5.65;2.88;;;;;;;;;;5052469;28;20031;-43
2023/01/06 10:03:15;;;;;;;6.20;2.97;;;;;;;;;;5051920;28;20052;-41
2023/01/06 10:05:59;;;;;;;7.05;3.00;;;;;;;;;;5052624;28;20041;-42
2023/01/06 10:08:29;;;;;;;5.00;3.60;;;;;;;;;;5051005;28;20048;-42
2023/01/06 10:10:54;;;;;;;5.70;2.78;;;;;;;;;;5052157;28;20029;-41
2023/01/06 10:13:23;;;;;;;7.57;3.20;;;;;;;;;;5051925;28;20036;-41
2023/01/06 10:16:03;;;;;;;3.90;2.20;;;;;;;;;;5051889;28;20463;-42
2023/01/06 10:18:38;;;;;;;4.65;2.30;;;;;;;;;;5052371;28;20029;-42
2023/01/06 10:21:22;;;;;;;5.53;2.70;;;;;;;;;;5051676;28;20029;-42
2023/01/06 10:23:52;;;;;;;6.82;3.33;;;;;;;;;;5051820;28;20025;-42
2023/01/06 10:26:31;;;;;;;6.80;3.03;;;;;;;;;;5051603;28;20503;-42
2023/01/06 10:29:11;;;;;;;4.25;2.65;;;;;;;;;;5050854;28;20112;-42
2023/01/06 10:31:37;;;;;;;4.57;2.67;;;;;;;;;;5051709;28;20048;-41
2023/01/06 10:34:03;;;;;;;6.50;3.35;;;;;;;;;;5051994;28;20017;-42
2023/01/06 10:36:36;;;;;;;5.05;2.80;;;;;;;;;;5051466;28;20032;-41
2023/01/06 10:39:05;;;;;;;10.23;2.95;;;;;;;;;;5051653;28;20029;-42
2023/01/06 10:41:46;;;;;;;6.50;2.42;;;;;;;;;;5051613;28;20033;-41
2023/01/06 10:44:12;;;;;;;4.72;2.45;;;;;;;;;;5051468;28;20029;-41
2023/01/06 10:46:38;;;;;;;4.40;2.45;;;;;;;;;;5051373;28;20411;-41
2023/01/06 10:49:05;;;;;;;4.07;2.70;;;;;;;;;;5051780;28;20025;-41
2023/01/06 10:51:30;;;;;;;4.80;2.85;;;;;;;;;;5051400;28;20031;-42
2023/01/06 10:53:56;;;;;;;4.55;2.45;;;;;;;;;;5051649;28;20029;-42
2023/01/06 10:56:21;;;;;;;5.10;2.42;;;;;;;;;;5051302;28;20372;-42
2023/01/06 10:58:56;;;;;;;5.07;2.88;;;;;;;;;;5051667;28;20086;-42
2023/01/06 11:01:23;;;;;;;7.45;3.85;;;;;;;;;;5051075;28;20049;-42
2023/01/06 11:04:06;;;;;;;5.13;2.58;;;;;;;;;;5051357;28;20060;-41
2023/01/06 11:06:32;;;;;;;;;;;;;;;;;;5051534;28;20040;-42
2023/01/06 11:08:57;;;;;;;3.55;2.20;;;;;;;;;;5051356;28;19905;-42
2023/01/06 11:11:23;;;;;;;6.70;3.17;;;;;;;;;;5051553;28;20040;-42
2023/01/06 11:13:50;;;;;;;3.42;2.13;;;;;;;;;;5051177;28;20025;-42
2023/01/06 11:16:26;;;;;;;5.82;2.47;;;;;;;;;;5051361;28;20053;-41
2023/01/06 11:18:56;;;;;;;5.28;2.95;;;;;;;;;;5051219;28;20581;-42
2023/01/06 11:21:35;;;;;;;5.28;2.63;;;;;;;;;;5051030;28;20037;-42
2023/01/06 11:24:08;;;;;;;3.35;2.20;;;;;;;;;;5051103;28;20086;-43
2023/01/06 11:26:33;;;;;;;;;;;;;;;;;;5051336;28;20041;-41
2023/01/06 11:29:15;;;;;;;5.22;2.38;;;;;;;;;;5051137;28;19913;-41
2023/01/06 11:31:46;;;;;;;4.85;2.70;;;;;;;;;;5051115;28;20108;-41
2023/01/06 11:34:18;;;;;;;3.08;2.17;;;;;;;;;;5052489;28;20039;-42
2023/01/06 11:36:47;;;;;;;4.77;2.93;;;;;;;;;;5054996;28;20079;-42
2023/01/06 11:39:14;;;;;;;4.18;2.13;;;;;;;;;;5053677;28;20617;-41
2023/01/06 11:41:43;;;;;;;3.92;2.80;;;;;;;;;;5054801;28;20028;-41
2023/01/06 11:44:11;;;;;;;4.40;2.38;;;;;;;;;;5054874;28;20534;-42
2023/01/06 11:46:38;;;;;;;6.38;2.90;;;;;;;;;;5054957;28;20135;-42
2023/01/06 11:49:06;;;;;;;6.68;3.45;;;;;;;;;;5054723;28;20029;-42
2023/01/06 11:51:40;;;;;;;7.07;2.70;;;;;;;;;;5054750;28;20545;-42
2023/01/06 11:54:21;;;;;;;4.70;2.65;;;;;;;;;;5054658;28;20033;-42
2023/01/06 11:57:10;;;;;;;3.60;2.72;;;;;;;;;;5054757;28;20116;-42
2023/01/06 11:59:44;;;;;;;4.28;2.10;;;;;;;;;;5051487;28;20487;-42
2023/01/06 12:02:12;;;;;;;3.38;2.20;;;;;;;;;;5052844;28;20056;-42
2023/01/06 12:04:41;;;;;;;3.30;2.67;;;;;;;;;;5053133;28;20116;-41
2023/01/06 12:07:26;;;;;;;6.30;3.25;;;;;;;;;;5054529;28;20428;-42
2023/01/06 12:09:51;;;;;;;6.65;2.70;;;;;;;;;;5054312;28;20021;-41
2023/01/06 12:12:20;;;;;;;9.38;3.35;;;;;;;;;;5054558;28;20071;-42
2023/01/06 12:14:45;;;;;;;3.92;2.22;;;;;;;;;;5054574;28;20446;-41
2023/01/06 12:17:26;;;;;;;7.35;3.45;;;;;;;;;;5054062;28;20029;-41
2023/01/06 12:20:07;;;;;;;7.82;2.55;;;;;;;;;;5054178;28;20068;-42
2023/01/06 12:22:38;;;;;;;6.80;3.50;;;;;;;;;;5052885;28;20114;-41
2023/01/06 12:25:05;;;;;;;5.15;2.58;;;;;;;;;;5054270;28;20071;-42
2023/01/06 12:27:36;;;;;;;4.90;2.55;;;;;;;;;;5053892;28;20087;-41
2023/01/06 12:30:05;;;;;;;3.65;2.42;;;;;;;;;;5054008;28;20064;-41
2023/01/06 12:32:35;;;;;;;7.22;3.03;;;;;;;;;;5053778;28;20040;-41
2023/01/06 12:35:01;;;;;;;4.60;2.75;;;;;;;;;;5053845;28;20109;-42
2023/01/06 12:37:26;;;;;;;5.93;3.05;;;;;;;;;;5053828;28;20096;-42
2023/01/06 12:39:54;;;;;;;7.45;3.92;;;;;;;;;;5054141;28;20424;-42
2023/01/06 12:42:38;;;;;;;5.40;2.90;;;;;;;;;;5053730;28;20548;-42
2023/01/06 12:45:07;;;;;;;6.93;3.13;;;;;;;;;;5051905;28;20029;-42
2023/01/06 12:47:38;;;;;;;7.93;3.88;;;;;;;;;;5053671;28;20410;-41
2023/01/06 12:50:14;;;;;;;6.45;2.97;;;;;;;;;;5053639;28;20029;-42
2023/01/06 12:53:00;;;;;;;7.32;2.97;;;;;;;;;;5053556;28;20129;-41
2023/01/06 12:55:38;;;;;;;4.05;2.28;;;;;;;;;;5053450;28;20025;-42
2023/01/06 12:58:07;;;;;;;5.30;2.95;;;;;;;;;;5053495;28;20079;-42
2023/01/06 13:00:42;;;;;;;5.90;2.83;;;;;;;;;;5053390;28;20084;-41
2023/01/06 13:03:19;;;;;;;5.95;3.50;;;;;;;;;;5053188;28;20076;-42
2023/01/06 13:05:48;;;;;;;7.00;3.28;;;;;;;;;;5051943;28;20032;-41
2023/01/06 13:08:16;;;;;;;6.47;3.17;;;;;;;;;;5053226;28;20498;-42
2023/01/06 13:10:45;;;;;;;8.50;3.65;;;;;;;;;;5052120;28;20391;-41
2023/01/06 13:13:24;;;;;;;7.63;3.10;;;;;;;;;;5052952;28;20033;-41
2023/01/06 13:15:52;;;;;;;5.28;2.95;;;;;;;;;;5053092;28;20033;-41
2023/01/06 13:18:31;;;;;;;7.75;2.85;;;;;;;;;;5053360;28;20029;-41
2023/01/06 13:21:10;;;;;;;4.25;2.72;;;;;;;;;;5053291;28;20037;-41
2023/01/06 13:23:35;;;;;;;8.32;3.38;;;;;;;;;;5053400;28;20112;-42
2023/01/06 13:26:01;;;;;;;9.40;3.35;;;;;;;;;;5052815;28;20186;-41
2023/01/06 13:28:53;;;;;;;11.52;2.95;;;;;;;;;;5052838;28;20528;-41
2023/01/06 13:31:22;;;;;;;6.15;2.83;;;;;;;;;;5051685;28;20510;-42
2023/01/06 13:34:05;;;;;;;4.68;3.08;;;;;;;;;;5052919;28;20544;-42
2023/01/06 13:36:49;;;;;;;7.25;2.65;;;;;;;;;;5052601;28;20036;-41
2023/01/06 13:39:23;;;;;;;6.38;2.78;;;;;;;;;;5052642;28;20086;-41
2023/01/06 13:41:51;;;;;;;5.70;2.97;;;;;;;;;;5052866;28;20060;-42
2023/01/06 13:44:19;;;;;;;4.95;2.95;;;;;;;;;;5052522;28;20056;-42
2023/01/06 13:46:46;;;;;;;5.13;2.83;;;;;;;;;;5052532;28;20045;-42
2023/01/06 13:49:13;;;;;;;7.50;2.95;;;;;;;;;;5052360;28;20032;-42
2023/01/06 13:51:39;;;;;;;8.95;4.25;;;;;;;;;;5052721;28;20067;-42
2023/01/06 13:54:05;;;;;;;9.88;5.03;;;;;;;;;;5052678;28;20021;-41
2023/01/06 13:56:32;;;;;;;7.72;3.80;;;;;;;;;;5051396;28;20029;-42
2023/01/06 13:59:16;;;;;;;6.65;3.00;;;;;;;;;;5052619;28;20116;-41
2023/01/06 14:01:41;;;;;;;8.90;4.57;;;;;;;;;;5052202;28;20081;-42
2023/01/06 14:04:26;;;;;;;7.82;4.18;;;;;;;;;;5052111;28;20544;-42
2023/01/06 14:06:51;;;;;;;10.50;3.80;;;;;;;;;;5052181;28;20445;-42
2023/01/06 14:09:17;;;;;;;8.73;4.40;;;;;;;;;;5051979;28;20021;-42
2023/01/06 14:11:43;;;;;;;5.90;3.22;;;;;;;;;;5052071;28;20053;-42
2023/01/06 14:14:37;;;;;;;9.32;3.97;;;;;;;;;;5051945;28;20024;-41
2023/01/06 14:17:03;;;;;;;5.65;2.95;;;;;;;;;;5050924;28;20095;-41
2023/01/06 14:19:30;;;;;;;7.38;3.30;;;;;;;;;;5052137;28;20051;-42
2023/01/06 14:22:22;;;;;;;6.95;3.80;;;;;;;;;;5051944;28;20032;-41
2023/01/06 14:24:52;;;;;;;8.73;4.27;;;;;;;;;;5049446;28;20052;-42
2023/01/06 14:27:36;;;;;;;5.95;3.25;;;;;;;;;;5051687;28;20281;-42
2023/01/06 14:30:04;;;;;;;7.63;3.47;;;;;;;;;;5051804;28;20459;-42
2023/01/06 14:32:35;;;;;;;5.70;3.60;;;;;;;;;;5051844;28;20086;-42
2023/01/06 14:35:02;;;;;;;8.32;3.30;;;;;;;;;;5051636;28;20121;-42
2023/01/06 14:37:34;;;;;;;5.72;3.00;;;;;;;;;;5051830;28;20021;-42
2023/01/06 14:40:00;;;;;;;7.22;3.20;;;;;;;;;;5051844;28;20025;-42
2023/01/06 14:42:28;;;;;;;7.82;3.75;;;;;;;;;;5051829;28;20035;-41
2023/01/06 14:45:03;;;;;;;7.47;3.25;;;;;;;;;;5051508;28;20447;-42
2023/01/06 14:47:32;;;;;;;3.63;2.33;;;;;;;;;;5051310;28;20128;-41
2023/01/06 14:50:10;;;;;;;8.32;3.80;;;;;;;;;;5051475;28;20024;-41
2023/01/06 14:52:38;;;;;;;9.85;3.33;;;;;;;;;;5051508;28;20040;-42
2023/01/06 14:55:24;;;;;;;9.68;2.67;;;;;;;;;;5051305;28;20021;-42